Aérodrome :
LOGIN :

S'inscrire | Disclaimer

   EN    FR    IT 

 










Légende :    VFR   VFR Marginal   IFR   IFR Intensif   IFR Très Intensif
Visi : 
Plafond : 
>= 8 km
>= 3000ft
5 à 8 km
1000 à 3000 ft
1500m à 5 km
500 à 1000 ft
800 à 1500m
200 à 500 ft
< 800m
< 200 ft
Symboles :   Orages  Brouillard  Fortes neiges  Fortes précipitations  Vent > 20 kt
SIGMETs :   Divers  Orages  Givrage  Turbulence  Onde Orograph.  Cendres Volcan.






- Altitude de l'aérodrome : 141 ft
- Code IATA : SKS


EKSP - Srydstrup Vojens

DERNIER METAR :
  • 210520Z 26015KT 9999 BKN012 06/04 Q1035 NOSIG

METARs EXPIRÉS :
  • 210450Z 25014KT 9999 BKN012 06/04 Q1036
  • 210420Z 25015KT 9999 BKN012 06/04 Q1036
  • 210350Z 26016KT 9999 BKN014 06/03 Q1036
  • 210320Z 26014KT 9999 BKN016 06/04 Q1037
  • 210250Z 26018KT 9999 BKN018 06/04 Q1037
  • 210220Z 25016KT 9999 BKN018 06/04 Q1037

TAF TAF EKSP
Valide du 21 à 03h jusqu'au 22 à 03h UTC


210224Z 2103/2203 25015G25KT 9999 BKN016
TEMPO 2103/2113 5000 BR BKN006
BECMG 2113/2115 26014KT 3000 -RADZ BKN005
TEMPO 2115/2119 1800 BKN003
TEMPO 2119/2123 1200 BR -DZ BKN002
BECMG 2123/2202 29012KT 6000 NSW BKN020



MET'MAP, la Météo Aéronautique d'un coup d'oeil ! - Copyright ORBIFLY Décembre 2007 - Disclaimer

ORBIFLY MET'MAP TEAM :

Programmation & Développement : Alexandra Zaïnal
Sur une idée originale de : Baudouin d'Aumeries
Assistance à la programmation : Marc-Olivier Méhu
Soutien technique & logistique : Manuel Goepfert

Contact : metmap@orbifly.com




SOURCES & CREDITS :

   NOAA